Accueil
METAR-TAF:

METAR-TAF

Aéroports :

Ponape, Micronésie

Aéroport international de Pohnpei

latitude: 06-59N, longitude: 158-12E, altitude: 2 m

Observation

Le bulletin a été fait il y a 47 minutes, à 21:50 UTC
Vent 5 kt de est
Température 31°C
Humidité 71%
Pression 1014 hPa
Visibilité: 24.1 km
Nuages épars à une hauteur de 1800 ft, Cumulus congestus.
Nuages fragmentés à une hauteur de 13000 ft
Nuages fragmentés à une hauteur de 30000 ft

METAR: PTPN 232150Z 09005KT 15SM SCT018TCU BKN130 BKN300 31/25 A2993 RMK TCU N-SE FIRST

Heure: 09:37 (22:37 UTC)

Prévision

Le bulletin a été fait il y a 23 heures et 8 minutes, à 23:29 UTC
Prévision valable du 23 à 00 UTC au 23 à 24 UTC
Vent 7 kt de sud-est
Visibilité: 10 km
Nuages épars à une hauteur de 1800 ft
Nuages fragmentés à une hauteur de 13000 ft
averses à proximité

TAF: PTPN 222329Z 2300/2324 13007KT P6SM VCSH SCT018 BKN130

Observations et prévisions météorologiques de plus de 4000 aéroports (messages METAR et TAF).

Les stations disponibles sont représentées par des disques jaunes et rouges sur la carte.

Passer la souris dessus pour voir le nom de la station.

Cliquer dessus pour voir les observations et prévisions météorologiques.

Pour changer de carte: cliquez sur les boutons verts avec une croix noire pour zoomer, sur le bouton vert avec un tiret pour effectuer un zoom arrière, ou sur les flèches vertes pour les cartes adjacentes.


METAR-TAF: